Time;durP1;ratioP1;P1;durP2;ratioP2;P2;SDS_P1;SDS_P2;PMS_P1;PMS_P2;Temp;Humidity;BMP_temperature;BMP_pressure;BME280_temperature;BME280_humidity;BME280_pressure;Samples;Min_cycle;Max_cycle;Signal;HPM_P1;HPM_P2
2023/08/16 00:02:08;;;;;;;13.38;7.50;;;15.70;99.90;;;;;;5073716;28;20088;-78
2023/08/16 00:04:54;;;;;;;12.88;7.07;;;15.70;99.90;;;;;;5056185;28;20448;-83
2023/08/16 00:07:40;;;;;;;11.73;7.22;;;15.60;99.90;;;;;;5074959;28;20467;-81
2023/08/16 00:10:26;;;;;;;14.25;6.38;;;15.60;99.90;;;;;;5072852;28;20037;-78
2023/08/16 00:13:12;;;;;;;10.98;6.82;;;15.60;99.90;;;;;;5055187;28;20313;-81
2023/08/16 00:16:00;;;;;;;13.30;7.53;;;15.50;99.90;;;;;;5074808;28;20390;-83
2023/08/16 00:18:47;;;;;;;11.95;7.55;;;15.50;99.90;;;;;;5048049;28;20113;-83
2023/08/16 00:21:33;;;;;;;11.93;6.28;;;15.50;99.90;;;;;;5077139;28;20118;-80
2023/08/16 00:24:19;;;;;;;10.05;7.10;;;15.50;99.90;;;;;;5076900;28;20045;-81
2023/08/16 00:27:05;;;;;;;11.93;6.13;;;15.50;99.90;;;;;;5059373;28;20067;-78
2023/08/16 00:29:51;;;;;;;10.90;5.82;;;15.50;99.90;;;;;;5077887;28;20123;-76
2023/08/16 00:32:37;;;;;;;11.95;7.38;;;15.40;99.90;;;;;;5077511;28;20178;-76
2023/08/16 00:35:24;;;;;;;14.48;7.13;;;15.40;99.90;;;;;;5058938;28;20052;-83
2023/08/16 00:38:10;;;;;;;11.43;6.38;;;15.40;99.90;;;;;;5068039;28;20048;-76
2023/08/16 00:40:57;;;;;;;13.25;6.88;;;15.40;99.90;;;;;;5047111;28;20052;-78
2023/08/16 00:43:43;;;;;;;9.77;5.97;;;15.40;99.90;;;;;;5075272;28;20071;-82
2023/08/16 00:46:30;;;;;;;14.00;6.90;;;15.30;99.90;;;;;;5074301;28;20049;-76
2023/08/16 00:49:16;;;;;;;12.85;7.85;;;15.40;99.90;;;;;;5073898;28;20067;-78
2023/08/16 00:52:04;;;;;;;12.07;7.07;;;15.30;99.90;;;;;;5073545;28;20053;-79
2023/08/16 00:54:50;;;;;;;11.90;7.85;;;15.30;99.90;;;;;;5053056;28;20100;-79
2023/08/16 00:57:36;;;;;;;12.20;7.10;;;15.40;99.90;;;;;;5054504;28;20053;-77
2023/08/16 01:00:22;;;;;;;13.15;6.82;;;15.30;99.90;;;;;;5054081;28;20136;-78
2023/08/16 01:03:09;;;;;;;9.52;6.47;;;15.30;99.90;;;;;;5038813;28;20085;-76
2023/08/16 01:05:55;;;;;;;11.32;6.38;;;15.30;99.90;;;;;;5053095;28;20412;-79
2023/08/16 01:08:41;;;;;;;14.77;7.03;;;15.30;99.90;;;;;;5053869;28;20126;-77
2023/08/16 01:11:41;;;;;;;15.25;8.25;;;15.30;99.90;;;;;;5053415;28;20049;-78
2023/08/16 01:14:59;;;;;;;13.15;6.55;;;15.30;99.90;;;;;;5053327;28;20052;-78
2023/08/16 01:17:46;;;;;;;10.00;6.32;;;15.20;99.90;;;;;;5053630;28;20059;-78
2023/08/16 01:20:32;;;;;;;12.85;9.07;;;15.20;99.90;;;;;;5053072;28;20528;-81
2023/08/16 01:23:30;;;;;;;18.45;9.93;;;15.20;99.90;;;;;;5053213;28;20103;-75
2023/08/16 01:26:16;;;;;;;13.90;8.77;;;15.20;99.90;;;;;;5053045;28;20052;-78
2023/08/16 01:29:04;;;;;;;9.18;6.82;;;15.20;99.90;;;;;;5054367;28;20052;-79
2023/08/16 01:31:50;;;;;;;12.57;7.47;;;15.20;99.90;;;;;;5053340;28;20049;-79
2023/08/16 01:34:36;;;;;;;15.27;9.27;;;15.20;99.90;;;;;;5051407;28;20520;-78
2023/08/16 01:37:23;;;;;;;13.85;7.70;;;15.20;99.90;;;;;;5051067;28;20072;-80
2023/08/16 01:40:09;;;;;;;11.63;7.10;;;15.20;99.90;;;;;;5051989;28;20464;-83
2023/08/16 01:42:56;;;;;;;15.95;9.50;;;15.20;99.90;;;;;;5055445;28;20055;-81
2023/08/16 01:45:43;;;;;;;15.45;10.30;;;15.20;99.90;;;;;;5054930;28;20057;-80
2023/08/16 01:48:32;;;;;;;20.15;12.38;;;15.20;99.90;;;;;;5053616;28;20107;-83
2023/08/16 01:51:18;;;;;;;14.10;8.60;;;15.20;99.90;;;;;;5059879;28;20049;-75
2023/08/16 01:54:05;;;;;;;18.05;11.55;;;15.10;99.90;;;;;;5060769;28;20048;-77
2023/08/16 01:56:51;;;;;;;15.27;7.85;;;15.10;99.90;;;;;;5076249;28;20040;-77
2023/08/16 01:59:37;;;;;;;12.73;8.27;;;15.10;99.90;;;;;;5076294;28;20040;-81
2023/08/16 02:02:24;;;;;;;12.23;8.32;;;15.10;99.90;;;;;;5074644;28;20091;-80
2023/08/16 02:05:10;;;;;;;14.40;7.85;;;15.10;99.90;;;;;;5055884;28;20132;-81
2023/08/16 02:07:56;;;;;;;10.30;7.50;;;15.10;99.90;;;;;;5042938;28;20084;-77
2023/08/16 02:10:42;;;;;;;14.25;8.10;;;15.10;99.90;;;;;;5074340;28;20044;-76
2023/08/16 02:13:28;;;;;;;14.68;8.63;;;15.00;99.90;;;;;;5054531;28;20063;-80
2023/08/16 02:16:14;;;;;;;14.38;8.60;;;15.10;99.90;;;;;;5054876;28;20091;-75
2023/08/16 02:19:00;;;;;;;15.45;9.07;;;15.00;99.90;;;;;;5073533;28;20055;-76
2023/08/16 02:21:46;;;;;;;14.13;8.57;;;15.00;99.90;;;;;;5072270;28;20045;-76
2023/08/16 02:24:34;;;;;;;19.73;11.73;;;15.00;99.90;;;;;;5055902;28;20087;-80
2023/08/16 02:27:20;;;;;;;20.23;9.23;;;15.00;99.90;;;;;;5071423;28;20080;-77
2023/08/16 02:30:07;;;;;;;15.50;9.10;;;14.90;99.90;;;;;;5054572;28;20052;-78
2023/08/16 02:32:56;;;;;;;15.93;9.65;;;15.00;99.90;;;;;;5040806;28;20052;-77
2023/08/16 02:35:42;;;;;;;13.00;8.60;;;14.90;99.90;;;;;;5056466;28;20049;-77
2023/08/16 02:38:29;;;;;;;14.82;8.18;;;14.90;99.90;;;;;;5071506;28;20052;-79
2023/08/16 02:41:15;;;;;;;15.27;8.65;;;14.80;99.90;;;;;;5056815;28;20048;-80
2023/08/16 02:44:01;;;;;;;10.68;6.68;;;14.80;99.90;;;;;;5071584;28;20119;-80
2023/08/16 02:46:47;;;;;;;9.05;6.68;;;14.80;99.90;;;;;;5056649;28;20059;-82
2023/08/16 02:49:33;;;;;;;10.68;5.80;;;14.80;99.90;;;;;;5056915;28;20075;-86
2023/08/16 02:52:19;;;;;;;12.63;7.05;;;14.70;99.90;;;;;;5054397;28;20075;-77
2023/08/16 02:55:05;;;;;;;7.78;5.43;;;14.70;99.90;;;;;;5049602;28;20056;-77
2023/08/16 02:57:52;;;;;;;10.13;5.65;;;14.60;99.90;;;;;;5050892;28;20412;-81
2023/08/16 03:00:39;;;;;;;6.65;4.03;;;14.60;99.90;;;;;;5049714;28;20128;-80
2023/08/16 03:03:25;;;;;;;8.70;5.10;;;14.60;99.90;;;;;;5037503;28;20143;-84
2023/08/16 03:06:11;;;;;;;9.75;4.97;;;14.60;99.90;;;;;;5050902;28;20049;-79
2023/08/16 03:08:57;;;;;;;9.73;4.70;;;14.60;99.90;;;;;;5050939;28;20516;-76
2023/08/16 03:11:43;;;;;;;6.93;4.97;;;14.60;99.90;;;;;;5052066;28;20085;-80
2023/08/16 03:14:29;;;;;;;8.98;4.88;;;14.50;99.90;;;;;;5052486;28;20044;-82
2023/08/16 03:17:15;;;;;;;8.50;5.72;;;14.50;99.90;;;;;;5051831;28;20045;-78
2023/08/16 03:20:01;;;;;;;11.68;7.45;;;14.50;99.90;;;;;;5052553;28;20544;-83
2023/08/16 03:22:47;;;;;;;12.15;6.63;;;14.50;99.90;;;;;;5049917;28;20492;-78
2023/08/16 03:25:33;;;;;;;11.40;5.30;;;14.40;99.90;;;;;;5050714;28;20163;-79
2023/08/16 03:28:20;;;;;;;7.82;4.82;;;14.40;99.90;;;;;;5051321;28;20049;-80
2023/08/16 03:31:07;;;;;;;7.90;5.40;;;14.40;99.90;;;;;;5050207;28;20436;-80
2023/08/16 03:33:53;;;;;;;9.02;6.20;;;14.40;99.90;;;;;;5049690;28;20080;-75
2023/08/16 03:36:39;;;;;;;8.52;5.32;;;14.30;99.90;;;;;;5050573;28;20563;-79
2023/08/16 03:39:25;;;;;;;7.82;5.22;;;14.30;99.90;;;;;;5050410;28;20045;-77
2023/08/16 03:42:12;;;;;;;9.45;5.28;;;14.30;99.90;;;;;;5052429;28;20088;-79
2023/08/16 03:44:58;;;;;;;7.53;4.53;;;14.30;99.90;;;;;;5050253;28;20063;-76
2023/08/16 03:47:44;;;;;;;7.03;3.53;;;14.30;99.90;;;;;;5052408;28;20512;-78
2023/08/16 03:50:30;;;;;;;8.20;5.35;;;14.20;99.90;;;;;;5051497;28;20048;-78
2023/08/16 03:53:16;;;;;;;11.82;6.22;;;14.20;99.90;;;;;;5050260;28;20102;-77
2023/08/16 03:56:02;;;;;;;7.25;3.97;;;14.20;99.90;;;;;;5070690;28;20049;-78
2023/08/16 03:58:48;;;;;;;10.75;5.00;;;14.20;99.90;;;;;;5055351;28;20052;-78
2023/08/16 04:01:35;;;;;;;9.48;4.22;;;14.10;99.90;;;;;;5052185;28;20049;-79
2023/08/16 04:04:21;;;;;;;10.13;4.80;;;14.10;99.90;;;;;;5052559;28;20048;-82
2023/08/16 04:07:07;;;;;;;8.25;4.15;;;14.10;99.90;;;;;;5052201;28;20473;-79
2023/08/16 04:09:53;;;;;;;5.05;2.80;;;14.10;99.90;;;;;;5051108;28;20049;-83
2023/08/16 04:12:39;;;;;;;5.65;3.08;;;14.10;99.90;;;;;;5033876;28;20055;-75
2023/08/16 04:15:25;;;;;;;7.78;2.95;;;14.00;99.90;;;;;;5052849;28;20107;-76
2023/08/16 04:18:11;;;;;;;5.80;2.92;;;14.00;99.90;;;;;;5036507;28;20049;-80
2023/08/16 04:20:57;;;;;;;7.68;3.30;;;14.00;99.90;;;;;;5039675;28;20048;-78
2023/08/16 04:23:43;;;;;;;5.72;3.00;;;14.00;99.90;;;;;;5024057;28;20064;-84
2023/08/16 04:26:30;;;;;;;5.13;2.88;;;14.00;99.90;;;;;;5036757;28;20148;-83
2023/08/16 04:29:16;;;;;;;6.90;3.05;;;14.00;99.90;;;;;;5052121;28;20040;-82
2023/08/16 04:32:02;;;;;;;4.95;3.17;;;14.00;99.90;;;;;;5051115;28;20128;-85
2023/08/16 04:34:49;;;;;;;6.03;2.83;;;14.00;99.90;;;;;;5052840;28;20053;-78
2023/08/16 04:37:35;;;;;;;9.27;5.85;;;14.00;99.90;;;;;;5039052;28;20045;-76
2023/08/16 04:40:21;;;;;;;7.43;5.38;;;14.00;99.90;;;;;;5034450;28;20045;-80
2023/08/16 04:43:07;;;;;;;6.70;4.00;;;14.00;99.90;;;;;;5052165;28;20118;-81
2023/08/16 04:45:53;;;;;;;4.63;2.70;;;14.00;99.90;;;;;;5052644;28;20085;-83
2023/08/16 04:48:39;;;;;;;7.30;3.38;;;14.10;99.90;;;;;;5044949;28;20055;-84
2023/08/16 04:51:26;;;;;;;7.97;4.25;;;14.10;99.90;;;;;;5053480;28;20048;-78
2023/08/16 04:54:12;;;;;;;5.78;3.78;;;14.10;99.90;;;;;;5056491;28;20053;-80
2023/08/16 04:56:59;;;;;;;5.65;3.83;;;14.10;99.90;;;;;;5037528;28;20087;-79
2023/08/16 04:59:45;;;;;;;8.23;4.35;;;14.20;99.90;;;;;;5050729;28;20053;-79
2023/08/16 05:02:31;;;;;;;10.73;5.78;;;14.20;99.90;;;;;;5053147;28;20051;-83
2023/08/16 05:05:17;;;;;;;10.40;5.20;;;14.30;99.90;;;;;;5054414;28;20091;-80
2023/08/16 05:08:03;;;;;;;7.60;4.35;;;14.30;99.90;;;;;;5056468;28;20048;-78
2023/08/16 05:10:49;;;;;;;5.22;3.38;;;14.40;99.90;;;;;;5054158;28;20064;-78
2023/08/16 05:13:36;;;;;;;5.10;3.10;;;14.50;99.90;;;;;;5053997;28;20049;-77
2023/08/16 05:16:22;;;;;;;5.22;3.03;;;14.60;99.90;;;;;;5035518;28;20122;-76
2023/08/16 05:19:08;;;;;;;5.78;2.42;;;14.60;99.90;;;;;;5022485;28;20147;-78
2023/08/16 05:21:54;;;;;;;6.95;3.50;;;14.80;99.90;;;;;;5054879;28;20056;-76
2023/08/16 05:24:40;;;;;;;6.38;3.78;;;14.90;99.90;;;;;;5039578;28;20049;-85
2023/08/16 05:27:28;;;;;;;7.30;4.30;;;15.00;99.90;;;;;;5043118;28;20564;-76
2023/08/16 05:30:14;;;;;;;5.38;3.15;;;15.10;99.90;;;;;;5064991;28;20052;-81
2023/08/16 05:33:00;;;;;;;8.35;5.10;;;15.30;99.90;;;;;;5074682;28;20400;-80
2023/08/16 05:35:47;;;;;;;7.20;4.63;;;15.50;99.90;;;;;;5074109;28;20048;-80
2023/08/16 05:38:33;;;;;;;10.85;6.38;;;15.60;99.90;;;;;;5092850;28;20466;-80
2023/08/16 05:41:19;;;;;;;8.93;6.07;;;15.80;99.90;;;;;;5091823;28;20044;-78
2023/08/16 05:44:05;;;;;;;9.85;5.70;;;16.00;99.90;;;;;;5056947;28;20082;-77
2023/08/16 05:46:51;;;;;;;10.45;6.68;;;16.10;99.90;;;;;;5065701;28;20040;-78
2023/08/16 05:49:38;;;;;;;12.10;7.35;;;16.20;99.90;;;;;;5073448;28;20063;-82
2023/08/16 05:52:24;;;;;;;8.60;6.38;;;16.30;99.90;;;;;;5056509;28;20053;-78
